Time;durP1;ratioP1;P1;durP2;ratioP2;P2;SDS_P1;SDS_P2;PMS_P1;PMS_P2;Temp;Humidity;BMP_temperature;BMP_pressure;BME280_temperature;BME280_humidity;BME280_pressure;Samples;Min_cycle;Max_cycle;Signal;HPM_P1;HPM_P2
2023/06/27 00:01:39;;;;;;;4.53;3.40;;;17.00;65.40;;;;;;6233666;28;20254;-86
2023/06/27 00:04:44;;;;;;;4.10;3.63;;;17.00;65.40;;;;;;6231284;28;20234;-83
2023/06/27 00:07:47;;;;;;;3.40;3.17;;;17.00;65.70;;;;;;6231081;28;20293;-85
2023/06/27 00:10:51;;;;;;;5.30;3.73;;;16.90;66.10;;;;;;6224236;28;20621;-85
2023/06/27 00:13:58;;;;;;;5.60;3.40;;;16.80;66.10;;;;;;6243049;28;20238;-85
2023/06/27 00:17:01;;;;;;;3.43;3.13;;;16.80;66.30;;;;;;6237737;28;20234;-85
2023/06/27 00:20:09;;;;;;;5.93;3.47;;;16.70;66.40;;;;;;6238844;28;20234;-85
2023/06/27 00:23:24;;;;;;;5.77;3.47;;;16.70;66.10;;;;;;6239901;28;20352;-84
2023/06/27 00:26:28;;;;;;;3.73;3.43;;;16.70;66.20;;;;;;6222223;28;20242;-83
2023/06/27 00:29:31;;;;;;;4.90;3.53;;;16.70;66.50;;;;;;6229918;28;20238;-84
2023/06/27 00:32:34;;;;;;;4.57;3.33;;;16.60;66.70;;;;;;6230485;28;20246;-85
2023/06/27 00:35:40;;;;;;;3.80;3.50;;;16.60;66.80;;;;;;6223315;28;20728;-85
2023/06/27 00:38:44;;;;;;;3.50;3.30;;;16.60;67.00;;;;;;6237605;28;20831;-85
2023/06/27 00:41:47;;;;;;;3.83;3.47;;;16.50;67.10;;;;;;6230195;28;20243;-83
2023/06/27 00:44:50;;;;;;;3.07;2.90;;;16.40;67.60;;;;;;6233432;28;20864;-84
2023/06/27 00:47:56;;;;;;;3.97;3.60;;;16.40;67.50;;;;;;6229806;28;20243;-85
2023/06/27 00:51:02;;;;;;;4.10;3.70;;;16.40;68.00;;;;;;6235957;28;20899;-85
2023/06/27 00:54:07;;;;;;;4.07;3.77;;;16.40;67.80;;;;;;6223977;28;20269;-84
2023/06/27 00:57:11;;;;;;;6.30;3.70;;;16.40;67.70;;;;;;6239776;28;20683;-83
2023/06/27 01:00:16;;;;;;;6.53;4.10;;;16.40;67.70;;;;;;6230867;28;20234;-82
2023/06/27 01:03:20;;;;;;;3.90;3.60;;;16.20;68.00;;;;;;6242241;28;20277;-85
2023/06/27 01:06:34;;;;;;;5.60;3.70;;;16.20;68.50;;;;;;6234852;28;20365;-84
2023/06/27 01:09:43;;;;;;;3.80;3.57;;;16.10;68.40;;;;;;6257361;28;20232;-83
2023/06/27 01:12:52;;;;;;;7.53;4.13;;;16.00;68.60;;;;;;6259195;28;20243;-82
2023/06/27 01:15:56;;;;;;;3.90;3.53;;;16.00;68.80;;;;;;6266643;28;20223;-83
2023/06/27 01:19:02;;;;;;;4.40;3.73;;;16.00;68.80;;;;;;6266498;28;20223;-82
2023/06/27 01:22:10;;;;;;;4.07;3.73;;;16.00;69.10;;;;;;6236411;28;20274;-86
2023/06/27 01:25:14;;;;;;;4.10;3.70;;;16.00;69.00;;;;;;6242043;28;20250;-83
2023/06/27 01:28:18;;;;;;;4.10;3.80;;;15.90;69.20;;;;;;6237584;28;20231;-85
2023/06/27 01:31:27;;;;;;;4.50;3.80;;;15.90;69.40;;;;;;6220263;28;20338;-83
2023/06/27 01:34:33;;;;;;;5.07;3.97;;;15.90;69.20;;;;;;6233302;28;20310;-86
2023/06/27 01:37:44;;;;;;;4.20;3.87;;;15.80;69.30;;;;;;6240899;28;20235;-84
2023/06/27 01:40:52;;;;;;;5.00;4.50;;;15.80;69.60;;;;;;6233685;28;20789;-84
2023/06/27 01:43:58;;;;;;;6.53;3.97;;;15.80;69.70;;;;;;6220038;28;20323;-82
2023/06/27 01:47:02;;;;;;;9.17;4.70;;;15.80;70.00;;;;;;6228069;28;20230;-84
2023/06/27 01:50:08;;;;;;;9.13;4.73;;;15.70;69.90;;;;;;6250212;28;20250;-84
2023/06/27 01:53:11;;;;;;;7.67;4.00;;;15.60;70.00;;;;;;6218145;28;20238;-85
2023/06/27 01:56:15;;;;;;;5.63;4.30;;;15.60;69.90;;;;;;6232848;28;20724;-84
2023/06/27 01:59:19;;;;;;;5.87;4.00;;;15.60;70.00;;;;;;6239622;28;20312;-84
2023/06/27 02:02:22;;;;;;;8.80;4.43;;;15.60;70.30;;;;;;6227729;28;20258;-84
2023/06/27 02:05:26;;;;;;;6.57;4.37;;;15.60;70.50;;;;;;6226293;28;20254;-84
2023/06/27 02:08:29;;;;;;;8.87;4.63;;;15.50;70.70;;;;;;6233151;28;20344;-83
2023/06/27 02:11:34;;;;;;;6.03;4.00;;;15.50;71.00;;;;;;6234727;28;20238;-83
2023/06/27 02:14:38;;;;;;;5.73;4.73;;;15.50;70.70;;;;;;6228132;28;20837;-85
2023/06/27 02:17:42;;;;;;;6.40;4.43;;;15.50;70.70;;;;;;6230306;28;20231;-85
2023/06/27 02:20:48;;;;;;;7.70;4.30;;;15.40;71.10;;;;;;6230022;28;20235;-85
2023/06/27 02:23:51;;;;;;;8.10;4.80;;;15.40;71.20;;;;;;6238525;28;20230;-84
2023/06/27 02:26:56;;;;;;;8.17;4.90;;;15.40;71.30;;;;;;6265183;28;20236;-84
2023/06/27 02:30:00;;;;;;;5.43;4.50;;;15.40;71.30;;;;;;6265726;28;20319;-84
2023/06/27 02:33:06;;;;;;;8.80;5.23;;;15.40;71.50;;;;;;6257211;28;20246;-83
2023/06/27 02:36:09;;;;;;;8.30;4.60;;;15.40;71.50;;;;;;6263688;28;20634;-84
2023/06/27 02:39:13;;;;;;;7.23;4.37;;;15.30;72.00;;;;;;6264814;28;20237;-84
2023/06/27 02:42:18;;;;;;;8.27;5.20;;;15.30;72.20;;;;;;6255336;28;20247;-84
2023/06/27 02:45:21;;;;;;;9.17;5.10;;;15.20;72.30;;;;;;6264336;28;20326;-85
2023/06/27 02:48:24;;;;;;;6.67;5.07;;;15.20;72.30;;;;;;6261878;28;20230;-85
2023/06/27 02:51:28;;;;;;;6.57;4.57;;;15.20;72.70;;;;;;6243782;28;20234;-83
2023/06/27 02:54:33;;;;;;;4.67;4.27;;;15.20;72.50;;;;;;6264087;28;20230;-84
2023/06/27 02:57:37;;;;;;;8.00;5.17;;;15.20;72.50;;;;;;6252286;28;20263;-83
2023/06/27 03:00:41;;;;;;;8.03;4.73;;;15.10;72.50;;;;;;6261960;28;20829;-84
2023/06/27 03:03:45;;;;;;;6.50;5.10;;;15.10;72.70;;;;;;6243028;28;20226;-82
2023/06/27 03:06:49;;;;;;;8.07;4.83;;;15.00;72.90;;;;;;6255797;28;20249;-83
2023/06/27 03:09:52;;;;;;;5.03;4.57;;;15.00;72.90;;;;;;6263800;28;20237;-84
2023/06/27 03:12:57;;;;;;;5.00;4.60;;;15.00;72.90;;;;;;6267064;28;20313;-84
2023/06/27 03:16:00;;;;;;;9.30;4.97;;;15.00;72.90;;;;;;6258070;28;20296;-84
2023/06/27 03:19:04;;;;;;;10.63;5.20;;;15.00;73.10;;;;;;6261247;28;20230;-85
2023/06/27 03:22:09;;;;;;;9.17;5.30;;;15.00;72.80;;;;;;6262967;28;20319;-81
2023/06/27 03:25:12;;;;;;;11.53;5.40;;;14.90;73.00;;;;;;6266592;28;20308;-86
2023/06/27 03:28:17;;;;;;;7.33;5.20;;;15.00;73.00;;;;;;6262808;28;20246;-83
2023/06/27 03:31:20;;;;;;;8.53;5.10;;;15.00;72.90;;;;;;6260806;28;20249;-81
2023/06/27 03:34:24;;;;;;;8.43;4.93;;;14.90;73.00;;;;;;6249802;28;20404;-81
2023/06/27 03:37:27;;;;;;;6.27;4.60;;;14.90;73.10;;;;;;6228060;28;20236;-84
2023/06/27 03:40:30;;;;;;;7.97;5.07;;;15.00;72.70;;;;;;6229695;28;20241;-84
2023/06/27 03:43:35;;;;;;;8.03;4.70;;;14.90;72.70;;;;;;6246112;28;20884;-82
2023/06/27 03:46:40;;;;;;;11.00;5.03;;;15.00;72.60;;;;;;6252977;28;20272;-83
2023/06/27 03:49:43;;;;;;;9.17;5.03;;;15.00;72.50;;;;;;6253303;28;20617;-81
2023/06/27 03:52:46;;;;;;;5.93;4.30;;;15.00;72.60;;;;;;6258513;28;20258;-84
2023/06/27 03:55:49;;;;;;;12.60;5.80;;;14.90;72.70;;;;;;6251686;28;20245;-82
2023/06/27 03:58:54;;;;;;;8.60;4.60;;;14.90;72.60;;;;;;6256279;28;20233;-84
2023/06/27 04:01:57;;;;;;;11.10;5.07;;;14.90;72.60;;;;;;6255735;28;20246;-85
2023/06/27 04:05:00;;;;;;;9.13;5.07;;;14.90;72.60;;;;;;6248060;28;20321;-83
2023/06/27 04:08:04;;;;;;;10.60;5.47;;;14.90;72.30;;;;;;6259592;28;20241;-83
2023/06/27 04:11:07;;;;;;;6.67;4.97;;;14.90;72.50;;;;;;6257185;28;20874;-85
2023/06/27 04:14:17;;;;;;;8.87;5.23;;;15.00;72.40;;;;;;6253017;28;20222;-82
2023/06/27 04:17:20;;;;;;;7.80;5.13;;;15.00;72.20;;;;;;6258580;28;20241;-83
2023/06/27 04:20:23;;;;;;;8.70;4.83;;;15.00;72.30;;;;;;6256428;28;20628;-80
2023/06/27 04:23:26;;;;;;;9.90;4.63;;;15.00;72.40;;;;;;6252348;28;20323;-82
2023/06/27 04:26:30;;;;;;;8.47;4.60;;;15.00;72.20;;;;;;6227638;28;20243;-83
2023/06/27 04:29:35;;;;;;;10.13;5.20;;;15.00;71.90;;;;;;6225640;28;21090;-83
2023/06/27 04:32:38;;;;;;;9.13;5.10;;;15.10;71.80;;;;;;6234520;28;20886;-82
2023/06/27 04:35:42;;;;;;;12.37;5.23;;;15.10;71.80;;;;;;6235158;28;20234;-83
2023/06/27 04:38:48;;;;;;;7.83;5.10;;;15.10;71.70;;;;;;6230667;28;20235;-84
2023/06/27 04:41:51;;;;;;;8.80;5.03;;;15.20;71.60;;;;;;6233029;28;20261;-83
2023/06/27 04:44:56;;;;;;;8.47;5.10;;;15.30;71.70;;;;;;6259544;28;20226;-82
2023/06/27 04:47:59;;;;;;;4.90;4.30;;;15.30;71.50;;;;;;6260790;28;20275;-85
2023/06/27 04:51:03;;;;;;;5.30;4.63;;;15.30;71.20;;;;;;6256454;28;20244;-84
2023/06/27 04:54:06;;;;;;;11.53;5.03;;;15.40;71.20;;;;;;6260030;28;20281;-82
2023/06/27 04:57:09;;;;;;;9.30;5.40;;;15.50;70.90;;;;;;6255024;28;20226;-83
2023/06/27 05:00:17;;;;;;;12.10;5.03;;;15.50;71.00;;;;;;6225953;28;20231;-81
2023/06/27 05:03:21;;;;;;;10.80;5.03;;;15.60;70.70;;;;;;6232845;28;20676;-83
2023/06/27 05:06:24;;;;;;;8.80;4.80;;;15.80;70.10;;;;;;6235497;28;20246;-83
2023/06/27 05:09:34;;;;;;;11.30;4.50;;;16.00;69.60;;;;;;6231438;28;20235;-81
2023/06/27 05:12:38;;;;;;;9.97;4.67;;;16.20;69.30;;;;;;6229433;28;20332;-81
2023/06/27 05:15:42;;;;;;;7.77;4.10;;;16.40;68.90;;;;;;6229182;28;20726;-82
2023/06/27 05:18:47;;;;;;;11.60;4.87;;;16.60;68.20;;;;;;6226412;28;20285;-81
2023/06/27 05:21:50;;;;;;;12.33;4.27;;;16.90;67.70;;;;;;6226523;28;20239;-80
2023/06/27 05:24:53;;;;;;;11.03;4.80;;;17.20;66.90;;;;;;6228880;28;20330;-80
2023/06/27 05:27:56;;;;;;;9.73;4.83;;;17.20;66.20;;;;;;6222197;28;20349;-78
2023/06/27 05:31:00;;;;;;;10.90;4.57;;;17.30;66.60;;;;;;6239309;28;20245;-80
2023/06/27 05:34:04;;;;;;;11.87;4.57;;;17.20;66.10;;;;;;6229618;28;20373;-80
2023/06/27 05:37:07;;;;;;;6.43;4.00;;;17.20;66.00;;;;;;6237513;28;20239;-79
2023/06/27 05:40:11;;;;;;;7.00;4.53;;;17.20;66.00;;;;;;6230452;28;20258;-80
2023/06/27 05:43:14;;;;;;;8.43;4.17;;;17.50;66.00;;;;;;6226135;28;20244;-75
2023/06/27 05:46:19;;;;;;;7.80;4.50;;;17.40;65.70;;;;;;6237666;28;20321;-77
2023/06/27 05:49:22;;;;;;;7.47;4.10;;;17.40;65.70;;;;;;6231345;28;20827;-79
2023/06/27 05:52:25;;;;;;;7.57;4.00;;;17.50;65.50;;;;;;6230046;28;20243;-78
2023/06/27 05:55:29;;;;;;;10.40;3.73;;;18.00;64.70;;;;;;6232879;28;20297;-80
2023/06/27 05:58:35;;;;;;;12.03;4.13;;;18.10;64.30;;;;;;6239797;28;20300;-80
2023/06/27 06:01:40;;;;;;;7.30;4.03;;;18.40;63.30;;;;;;6237366;28;20246;-80
2023/06/27 06:04:43;;;;;;;6.13;3.67;;;18.10;63.30;;;;;;6226335;28;20252;-78
2023/06/27 06:07:46;;;;;;;7.37;4.20;;;18.20;63.30;;;;;;6240644;28;20706;-79
2023/06/27 06:10:50;;;;;;;10.33;3.83;;;18.30;63.00;;;;;;6225039;28;20293;-80
2023/06/27 06:13:54;;;;;;;6.07;3.70;;;18.30;63.10;;;;;;6222018;28;20348;-78
2023/06/27 06:16:59;;;;;;;7.43;3.73;;;18.20;63.00;;;;;;6230778;28;20251;-77
2023/06/27 06:20:03;;;;;;;11.37;3.90;;;18.20;63.20;;;;;;6219157;28;22355;-78
2023/06/27 06:23:07;;;;;;;9.97;4.40;;;18.00;63.40;;;;;;6234956;28;20236;-77
2023/06/27 06:26:10;;;;;;;9.27;3.77;;;18.10;63.20;;;;;;6230225;28;20239;-79
2023/06/27 06:29:13;;;;;;;7.50;4.03;;;17.90;64.30;;;;;;6232900;28;20239;-79
2023/06/27 06:32:18;;;;;;;8.43;3.33;;;18.00;63.60;;;;;;6220529;28;20246;-79
2023/06/27 06:35:21;;;;;;;9.93;4.13;;;17.90;63.40;;;;;;6228257;28;20246;-77
2023/06/27 06:38:26;;;;;;;5.60;3.53;;;18.00;63.80;;;;;;6233275;28;20255;-81
2023/06/27 06:41:29;;;;;;;8.13;3.60;;;18.00;63.70;;;;;;6229625;28;20947;-78
2023/06/27 06:44:34;;;;;;;8.80;3.17;;;18.00;64.10;;;;;;6237890;28;20384;-79
2023/06/27 06:47:39;;;;;;;4.60;3.00;;;18.30;63.40;;;;;;6233150;28;20366;-79
2023/06/27 06:50:42;;;;;;;7.03;3.83;;;18.50;63.50;;;;;;6236381;28;20292;-79
2023/06/27 06:53:45;;;;;;;6.17;3.30;;;18.50;62.30;;;;;;6225559;28;20614;-76
2023/06/27 06:56:50;;;;;;;7.20;3.27;;;18.40;62.30;;;;;;6234656;28;20566;-79
2023/06/27 06:59:53;;;;;;;7.43;3.63;;;18.20;62.50;;;;;;6233176;28;20273;-76
2023/06/27 07:02:58;;;;;;;8.90;3.23;;;18.10;63.00;;;;;;6224222;28;20285;-78
2023/06/27 07:06:01;;;;;;;9.63;3.43;;;18.20;63.30;;;;;;6222074;28;20239;-78
2023/06/27 07:09:05;;;;;;;8.77;4.03;;;18.40;62.50;;;;;;6235506;28;20786;-77
2023/06/27 07:12:09;;;;;;;3.73;3.27;;;18.40;62.70;;;;;;6234507;28;20243;-77
2023/06/27 07:15:15;;;;;;;6.67;3.33;;;18.30;62.80;;;;;;6223639;28;20555;-77
2023/06/27 07:18:20;;;;;;;4.70;2.93;;;18.60;61.80;;;;;;6222394;28;20437;-80
2023/06/27 07:21:23;;;;;;;5.33;2.50;;;18.70;60.30;;;;;;6230080;28;20235;-77
2023/06/27 07:24:27;;;;;;;6.40;2.97;;;18.90;60.30;;;;;;6231443;28;20231;-78
2023/06/27 07:27:30;;;;;;;6.93;2.73;;;19.00;59.90;;;;;;6234574;28;20234;-77
2023/06/27 07:30:33;;;;;;;5.33;3.03;;;19.30;59.90;;;;;;6236127;28;20269;-77
2023/06/27 07:33:37;;;;;;;4.53;3.13;;;19.70;58.80;;;;;;6235410;28;20237;-79
2023/06/27 07:36:40;;;;;;;4.60;2.90;;;19.90;59.20;;;;;;6237973;28;20802;-80
2023/06/27 07:39:43;;;;;;;5.37;2.63;;;20.00;59.00;;;;;;6235654;28;20311;-78
2023/06/27 07:42:47;;;;;;;5.77;3.00;;;19.70;59.20;;;;;;6231432;28;20298;-78
2023/06/27 07:45:51;;;;;;;7.00;2.63;;;19.40;59.00;;;;;;6227319;28;20334;-80
2023/06/27 07:48:58;;;;;;;3.10;2.60;;;19.40;58.70;;;;;;6236773;28;20250;-79
2023/06/27 07:52:02;;;;;;;3.30;2.50;;;19.70;58.40;;;;;;6217779;28;20293;-79
2023/06/27 07:55:06;;;;;;;7.17;3.00;;;19.70;59.30;;;;;;6232517;28;20245;-77
2023/06/27 07:58:09;;;;;;;5.90;2.70;;;19.40;59.70;;;;;;6235192;28;20238;-77
2023/06/27 08:01:12;;;;;;;3.60;2.60;;;18.80;60.50;;;;;;6231685;28;20744;-80
2023/06/27 08:04:17;;;;;;;5.43;2.80;;;18.60;61.40;;;;;;6227003;28;20231;-81
2023/06/27 08:07:20;;;;;;;6.23;2.90;;;18.40;60.40;;;;;;6232940;28;20297;-78
2023/06/27 08:10:25;;;;;;;4.30;2.30;;;18.50;60.90;;;;;;6252865;28;20238;-77
2023/06/27 08:13:29;;;;;;;7.03;3.17;;;18.70;60.10;;;;;;6244225;28;20809;-77
2023/06/27 08:16:33;;;;;;;5.40;2.90;;;18.90;59.50;;;;;;6223064;28;20315;-77
2023/06/27 08:19:37;;;;;;;5.20;2.80;;;19.20;58.50;;;;;;6229823;28;20254;-79
2023/06/27 08:22:40;;;;;;;6.13;2.70;;;19.40;58.20;;;;;;6231593;28;20230;-79
2023/06/27 08:25:44;;;;;;;5.63;2.93;;;19.10;56.80;;;;;;6230977;28;20223;-79
2023/06/27 08:28:47;;;;;;;3.67;2.80;;;18.90;57.00;;;;;;6220387;28;20251;-77
2023/06/27 08:31:51;;;;;;;2.90;2.60;;;18.90;57.50;;;;;;6229301;28;20246;-80
2023/06/27 08:34:58;;;;;;;3.10;2.70;;;19.20;58.00;;;;;;6229423;28;20262;-80
2023/06/27 08:38:03;;;;;;;4.93;2.57;;;19.50;57.20;;;;;;6225798;28;20344;-79
2023/06/27 08:41:11;;;;;;;2.33;2.20;;;19.60;57.50;;;;;;6250016;28;21083;-78
2023/06/27 08:44:15;;;;;;;6.87;2.47;;;19.40;57.30;;;;;;6248674;28;20252;-80
2023/06/27 08:47:23;;;;;;;2.50;2.40;;;19.30;56.60;;;;;;6260005;28;20280;-78
2023/06/27 08:50:29;;;;;;;4.90;2.50;;;19.10;56.70;;;;;;6262299;28;20236;-79
2023/06/27 08:53:37;;;;;;;5.77;2.77;;;18.90;57.00;;;;;;6255847;28;20265;-78
2023/06/27 08:56:42;;;;;;;4.20;2.70;;;18.80;57.40;;;;;;6270364;28;20244;-78
2023/06/27 08:59:47;;;;;;;4.67;2.93;;;18.80;57.10;;;;;;6252236;28;20235;-78
2023/06/27 09:02:50;;;;;;;2.70;2.47;;;18.80;57.70;;;;;;6222449;28;20850;-79
2023/06/27 09:05:57;;;;;;;2.37;2.10;;;18.90;58.50;;;;;;6230540;28;20241;-79
2023/06/27 09:09:01;;;;;;;6.90;2.77;;;18.80;57.80;;;;;;6233188;28;20300;-80
2023/06/27 09:12:08;;;;;;;3.00;2.80;;;19.20;57.80;;;;;;6234557;28;20880;-79
2023/06/27 09:15:11;;;;;;;3.70;2.20;;;19.70;55.80;;;;;;6237643;28;20761;-78
2023/06/27 09:18:15;;;;;;;2.37;2.17;;;20.20;54.20;;;;;;6229945;28;20241;-79
2023/06/27 09:21:21;;;;;;;2.53;2.33;;;20.50;55.20;;;;;;6229234;28;20243;-79
2023/06/27 09:24:24;;;;;;;3.73;2.27;;;20.40;53.90;;;;;;6231552;28;20279;-84
2023/06/27 09:27:34;;;;;;;3.60;2.27;;;19.90;56.50;;;;;;6231417;28;20304;-82
2023/06/27 09:30:37;;;;;;;2.03;1.90;;;18.80;58.60;;;;;;6235926;28;20762;-81
2023/06/27 09:33:42;;;;;;;5.00;2.40;;;17.80;61.60;;;;;;6239133;28;20264;-80
2023/06/27 09:36:52;;;;;;;2.27;2.20;;;17.40;63.90;;;;;;6238594;28;20233;-82
2023/06/27 09:39:59;;;;;;;2.73;2.30;;;17.00;64.90;;;;;;6240671;28;20258;-82
2023/06/27 09:43:02;;;;;;;3.30;2.67;;;17.00;66.40;;;;;;6229933;28;20254;-81
2023/06/27 09:46:06;;;;;;;3.20;2.90;;;16.90;66.40;;;;;;6226880;28;20292;-79
2023/06/27 09:49:10;;;;;;;3.13;2.60;;;16.80;68.10;;;;;;6234404;28;20241;-80
2023/06/27 09:52:14;;;;;;;3.23;2.73;;;16.90;69.50;;;;;;6233683;28;20239;-80
2023/06/27 09:55:18;;;;;;;2.97;2.70;;;17.20;69.70;;;;;;6234985;28;20316;-78
2023/06/27 09:58:27;;;;;;;2.60;2.40;;;17.40;69.20;;;;;;6240572;28;20246;-77
2023/06/27 10:01:30;;;;;;;5.63;2.70;;;17.50;68.40;;;;;;6229229;28;20231;-79
2023/06/27 10:04:34;;;;;;;5.87;3.00;;;17.70;68.30;;;;;;6245649;28;20273;-78
2023/06/27 10:07:44;;;;;;;3.27;3.03;;;18.00;68.60;;;;;;6234374;28;20239;-80
2023/06/27 10:10:48;;;;;;;4.00;2.90;;;18.20;66.20;;;;;;6224186;28;20253;-79
2023/06/27 10:13:51;;;;;;;2.70;2.60;;;18.30;65.70;;;;;;6235371;28;20756;-77
2023/06/27 10:16:55;;;;;;;3.63;2.80;;;18.60;66.90;;;;;;6236766;28;20246;-79
2023/06/27 10:19:58;;;;;;;4.27;2.70;;;18.80;63.70;;;;;;6232710;28;20511;-77
2023/06/27 10:23:04;;;;;;;2.57;2.40;;;18.90;61.90;;;;;;6224200;28;20293;-80
2023/06/27 10:26:09;;;;;;;3.33;2.63;;;19.10;62.70;;;;;;6232563;28;20246;-80
2023/06/27 10:29:15;;;;;;;2.90;2.70;;;18.90;62.20;;;;;;6231359;28;20235;-79
2023/06/27 10:32:19;;;;;;;3.23;2.50;;;18.70;62.30;;;;;;6220998;28;20786;-79
2023/06/27 10:35:29;;;;;;;3.87;2.40;;;18.50;62.80;;;;;;6232670;28;20271;-80
2023/06/27 10:38:38;;;;;;;4.73;2.67;;;18.20;61.10;;;;;;6241448;28;20231;-80
2023/06/27 10:41:41;;;;;;;2.53;2.30;;;17.80;64.20;;;;;;6239695;28;20271;-79
2023/06/27 10:45:08;;;;;;;2.47;2.37;;;18.00;63.00;;;;;;6240497;28;20309;-78
2023/06/27 10:48:11;;;;;;;2.43;2.37;;;18.00;64.60;;;;;;6235492;28;20231;-79
2023/06/27 10:51:19;;;;;;;2.97;2.37;;;17.80;64.20;;;;;;6234809;28;20262;-81
2023/06/27 10:54:23;;;;;;;5.10;2.73;;;17.20;65.00;;;;;;6240066;28;20607;-82
2023/06/27 10:57:38;;;;;;;4.03;2.27;;;16.70;66.50;;;;;;6240708;28;20269;-81
2023/06/27 11:00:43;;;;;;;2.70;2.50;;;16.50;66.80;;;;;;6245298;28;20238;-80
2023/06/27 11:03:57;;;;;;;2.63;2.53;;;16.40;67.60;;;;;;6242821;28;20250;-80
2023/06/27 11:07:01;;;;;;;4.17;2.60;;;16.40;67.10;;;;;;6230744;28;20231;-80
2023/06/27 11:10:23;;;;;;;2.43;2.23;;;16.40;68.00;;;;;;6239633;28;20255;-81
2023/06/27 11:13:28;;;;;;;2.47;2.40;;;16.20;70.20;;;;;;6248760;28;20246;-81
2023/06/27 11:16:32;;;;;;;2.70;2.60;;;16.40;69.80;;;;;;6259528;28;20462;-80
2023/06/27 11:19:38;;;;;;;2.47;2.37;;;16.40;69.60;;;;;;6252304;28;20414;-78
2023/06/27 11:22:41;;;;;;;2.50;2.40;;;16.50;70.80;;;;;;6260086;28;20261;-80
2023/06/27 11:25:47;;;;;;;2.60;2.47;;;16.80;69.40;;;;;;6257157;28;20226;-80
2023/06/27 11:28:51;;;;;;;2.83;2.27;;;16.90;68.10;;;;;;6269473;28;20226;-79
2023/06/27 11:31:56;;;;;;;2.17;2.07;;;17.00;69.10;;;;;;6279434;28;20245;-79
2023/06/27 11:35:05;;;;;;;1.93;1.83;;;17.20;68.20;;;;;;6278397;28;20242;-80
2023/06/27 11:38:10;;;;;;;2.20;2.10;;;17.40;67.40;;;;;;6259287;28;20309;-80
2023/06/27 11:41:18;;;;;;;2.33;2.10;;;17.50;65.90;;;;;;6275499;28;20234;-80
2023/06/27 11:44:22;;;;;;;2.40;2.30;;;17.80;66.20;;;;;;6280349;28;20242;-80
2023/06/27 11:47:25;;;;;;;2.57;2.40;;;18.00;65.40;;;;;;6282326;28;20366;-75
2023/06/27 11:50:28;;;;;;;3.83;2.57;;;18.10;65.30;;;;;;6287026;28;20250;-77
2023/06/27 11:53:33;;;;;;;2.90;2.67;;;18.40;65.30;;;;;;6293923;28;20217;-76
2023/06/27 11:56:40;;;;;;;4.07;2.20;;;18.60;64.20;;;;;;6288568;28;20234;-77
2023/06/27 11:59:43;;;;;;;2.50;2.30;;;18.80;63.40;;;;;;6263948;28;20223;-81
2023/06/27 12:02:50;;;;;;;2.50;2.10;;;18.90;62.20;;;;;;6283756;28;20239;-77
2023/06/27 12:05:56;;;;;;;2.20;2.10;;;19.20;62.80;;;;;;6263574;28;20278;-78
2023/06/27 12:08:59;;;;;;;2.17;2.00;;;19.50;61.50;;;;;;6253544;28;20235;-80
2023/06/27 12:12:05;;;;;;;2.20;2.10;;;19.80;60.50;;;;;;6253558;28;20242;-78
2023/06/27 12:15:15;;;;;;;2.93;1.80;;;20.10;59.30;;;;;;6241921;28;20254;-79
2023/06/27 12:18:24;;;;;;;1.80;1.80;;;20.30;58.30;;;;;;6256529;28;20235;-77
2023/06/27 12:21:27;;;;;;;1.83;1.50;;;19.90;56.80;;;;;;6262027;28;20235;-77
2023/06/27 12:24:30;;;;;;;1.60;1.60;;;19.50;56.70;;;;;;6244555;28;20246;-78
2023/06/27 12:27:37;;;;;;;2.93;1.67;;;19.30;58.30;;;;;;6258359;28;20238;-79
2023/06/27 12:30:40;;;;;;;1.70;1.70;;;19.00;57.50;;;;;;6266749;28;20235;-79
2023/06/27 12:33:44;;;;;;;2.57;1.80;;;18.70;58.60;;;;;;6263716;28;20261;-78
2023/06/27 12:36:47;;;;;;;1.70;1.70;;;18.50;59.00;;;;;;6263635;28;20233;-81
2023/06/27 12:39:50;;;;;;;3.87;2.10;;;18.40;58.90;;;;;;6268307;28;20230;-81
2023/06/27 12:42:57;;;;;;;1.67;1.67;;;18.40;59.00;;;;;;6264495;28;20237;-78
2023/06/27 12:46:01;;;;;;;2.20;2.10;;;18.40;60.00;;;;;;6272569;28;20218;-78
2023/06/27 12:49:04;;;;;;;2.43;2.03;;;18.50;59.10;;;;;;6272182;28;20486;-77
2023/06/27 12:52:08;;;;;;;2.57;2.33;;;18.50;59.00;;;;;;6262135;28;20261;-80
2023/06/27 12:55:11;;;;;;;1.90;1.90;;;18.40;59.30;;;;;;6273948;28;20249;-77
2023/06/27 12:58:15;;;;;;;2.40;2.30;;;18.40;59.40;;;;;;6258948;28;20246;-76
2023/06/27 13:01:23;;;;;;;3.30;1.90;;;18.30;58.70;;;;;;6273632;28;20233;-80
2023/06/27 13:04:28;;;;;;;2.93;2.10;;;18.30;59.10;;;;;;6253081;28;20229;-79
2023/06/27 13:07:31;;;;;;;2.33;2.23;;;18.50;58.20;;;;;;6274299;28;20222;-78
2023/06/27 13:10:34;;;;;;;2.13;2.03;;;18.50;58.40;;;;;;6268995;28;20235;-78
2023/06/27 13:13:39;;;;;;;3.10;1.80;;;18.50;58.20;;;;;;6271506;28;20218;-76
2023/06/27 13:16:42;;;;;;;2.30;2.20;;;18.60;58.80;;;;;;6274299;28;20235;-77
2023/06/27 13:19:45;;;;;;;1.90;1.80;;;18.90;58.30;;;;;;6278364;28;20225;-80
2023/06/27 13:22:49;;;;;;;1.97;1.87;;;19.10;57.80;;;;;;6277668;28;20226;-78
2023/06/27 13:25:52;;;;;;;2.90;2.13;;;19.30;58.40;;;;;;6260677;28;20218;-79
2023/06/27 13:28:57;;;;;;;2.33;2.03;;;19.70;57.80;;;;;;6271625;28;20223;-78
2023/06/27 13:32:00;;;;;;;1.87;1.77;;;19.90;58.40;;;;;;6267226;28;20230;-78
2023/06/27 13:35:03;;;;;;;1.90;1.80;;;20.00;57.60;;;;;;6274179;28;20246;-77
2023/06/27 13:38:07;;;;;;;2.27;2.17;;;20.30;56.80;;;;;;6266290;28;20245;-76
2023/06/27 13:41:10;;;;;;;1.80;1.67;;;20.40;57.00;;;;;;6261633;28;20223;-78
2023/06/27 13:44:16;;;;;;;1.93;1.83;;;20.50;55.90;;;;;;6265333;28;20230;-75
2023/06/27 13:47:19;;;;;;;1.83;1.80;;;20.30;56.00;;;;;;6260596;28;20239;-77
2023/06/27 13:50:22;;;;;;;1.73;1.63;;;20.30;58.40;;;;;;6269424;28;20230;-76
2023/06/27 13:53:25;;;;;;;2.03;1.93;;;20.70;57.10;;;;;;6262301;28;20302;-79
2023/06/27 13:56:28;;;;;;;2.93;1.73;;;21.00;55.50;;;;;;6274883;28;20227;-76
2023/06/27 13:59:33;;;;;;;2.60;2.10;;;20.80;55.50;;;;;;6259120;28;20222;-78
2023/06/27 14:02:36;;;;;;;3.93;2.03;;;20.50;55.40;;;;;;6261230;28;20281;-77
2023/06/27 14:05:40;;;;;;;3.57;2.40;;;20.40;55.70;;;;;;6269644;28;22470;-76
2023/06/27 14:08:43;;;;;;;3.17;2.97;;;20.50;56.90;;;;;;6261461;28;20241;-76
2023/06/27 14:11:50;;;;;;;2.37;2.17;;;20.70;56.80;;;;;;6266682;28;20297;-75
2023/06/27 14:14:54;;;;;;;1.90;1.80;;;21.10;57.00;;;;;;6271498;28;21891;-78
2023/06/27 14:17:58;;;;;;;2.07;2.03;;;21.30;54.70;;;;;;6267635;28;20233;-78
2023/06/27 14:21:07;;;;;;;2.37;1.90;;;21.20;54.40;;;;;;6275598;28;20231;-77
2023/06/27 14:24:10;;;;;;;4.87;2.33;;;21.30;55.30;;;;;;6266425;28;20245;-78
2023/06/27 14:27:15;;;;;;;2.43;2.27;;;21.50;54.30;;;;;;6269987;28;20238;-79
2023/06/27 14:30:20;;;;;;;1.70;1.70;;;21.80;54.50;;;;;;6267631;28;20250;-77
2023/06/27 14:33:23;;;;;;;1.90;1.80;;;22.00;52.60;;;;;;6261970;28;20247;-80
2023/06/27 14:36:28;;;;;;;3.00;1.57;;;21.70;52.60;;;;;;6242589;28;20265;-79
2023/06/27 14:39:32;;;;;;;1.60;1.60;;;21.10;52.30;;;;;;6256411;28;20337;-79
2023/06/27 14:42:35;;;;;;;1.60;1.50;;;20.50;53.90;;;;;;6241265;28;20372;-77
2023/06/27 14:45:40;;;;;;;3.10;1.60;;;20.10;54.40;;;;;;6243407;28;20238;-76
2023/06/27 14:48:43;;;;;;;2.10;2.00;;;19.70;55.50;;;;;;6260019;28;20324;-79
2023/06/27 14:51:46;;;;;;;1.90;1.80;;;19.40;56.10;;;;;;6257313;28;20242;-77
2023/06/27 14:54:49;;;;;;;3.03;2.17;;;19.10;56.90;;;;;;6235667;28;20238;-78
2023/06/27 14:57:52;;;;;;;6.97;3.23;;;18.80;58.40;;;;;;6235815;28;20230;-79
2023/06/27 15:00:56;;;;;;;5.20;2.93;;;17.20;64.10;;;;;;6257587;28;20241;-75
2023/06/27 15:04:00;;;;;;;2.70;2.50;;;15.30;65.50;;;;;;6260917;28;20239;-82
2023/06/27 15:07:09;;;;;;;3.07;2.20;;;14.30;69.30;;;;;;6256299;28;20501;-78
2023/06/27 15:10:12;;;;;;;2.60;2.40;;;13.70;72.00;;;;;;6249374;28;20388;-79
2023/06/27 15:13:15;;;;;;;3.03;2.80;;;13.50;73.30;;;;;;6251839;28;20810;-78
2023/06/27 15:16:20;;;;;;;2.87;2.73;;;13.40;74.50;;;;;;6264206;28;20303;-79
2023/06/27 15:19:23;;;;;;;2.83;2.73;;;13.30;75.80;;;;;;6283371;28;20230;-77
2023/06/27 15:22:27;;;;;;;3.20;3.00;;;13.30;76.40;;;;;;6273763;28;20291;-83
2023/06/27 15:25:32;;;;;;;3.97;2.97;;;13.40;77.10;;;;;;6279675;28;20297;-82
2023/06/27 15:28:36;;;;;;;2.57;2.53;;;13.50;76.20;;;;;;6284289;28;20229;-79
2023/06/27 15:31:41;;;;;;;2.80;2.60;;;13.60;76.60;;;;;;6282226;28;20749;-77
2023/06/27 15:34:45;;;;;;;2.63;2.53;;;13.70;77.00;;;;;;6281039;28;20251;-81
2023/06/27 15:37:48;;;;;;;2.27;2.27;;;13.80;76.90;;;;;;6284273;28;20286;-77
2023/06/27 15:40:52;;;;;;;2.93;2.83;;;13.90;77.50;;;;;;6289936;28;20261;-78
2023/06/27 15:43:56;;;;;;;2.57;2.57;;;13.90;77.80;;;;;;6288173;28;20221;-79
2023/06/27 15:47:00;;;;;;;2.60;2.57;;;14.00;77.80;;;;;;6279224;28;20230;-79
2023/06/27 15:50:05;;;;;;;3.80;2.50;;;14.10;77.90;;;;;;6273534;28;20230;-78
2023/06/27 15:53:08;;;;;;;2.50;2.40;;;14.20;76.50;;;;;;6276025;28;20440;-80
2023/06/27 15:56:11;;;;;;;2.50;2.40;;;14.30;76.70;;;;;;6286266;28;20230;-80
2023/06/27 15:59:15;;;;;;;2.03;2.03;;;14.30;76.30;;;;;;6286552;28;20271;-78